Time;durP1;ratioP1;P1;durP2;ratioP2;P2;SDS_P1;SDS_P2;PMS_P1;PMS_P2;Temp;Humidity;BMP_temperature;BMP_pressure;BME280_temperature;BME280_humidity;BME280_pressure;Samples;Min_cycle;Max_cycle;Signal;HPM_P1;HPM_P2
2022/11/29 00:01:00;;;;;;;30.75;11.50;;;;;;;7.18;78.73;100087.34;5037664;28;20081;-50
2022/11/29 00:03:27;;;;;;;28.20;10.88;;;;;;;7.16;78.56;100091.59;5037625;28;20661;-55
2022/11/29 00:05:54;;;;;;;31.77;11.00;;;;;;;7.15;77.33;100096.72;5037099;28;20069;-54
2022/11/29 00:08:22;;;;;;;31.23;10.32;;;;;;;7.11;78.58;100095.81;5035368;28;20648;-51
2022/11/29 00:10:49;;;;;;;34.35;11.98;;;;;;;7.10;77.74;100094.09;5034636;28;20049;-52
2022/11/29 00:13:16;;;;;;;39.65;13.30;;;;;;;7.13;77.89;100106.16;5033332;28;20079;-51
2022/11/29 00:15:43;;;;;;;30.48;11.88;;;;;;;7.12;78.38;100107.84;5036527;28;20053;-50
2022/11/29 00:18:09;;;;;;;34.72;11.45;;;;;;;7.14;77.92;100111.31;5036632;28;20119;-50
2022/11/29 00:20:37;;;;;;;33.80;11.32;;;;;;;7.13;77.42;100109.56;5033468;28;20061;-53
2022/11/29 00:23:04;;;;;;;37.15;9.85;;;;;;;7.12;78.52;100107.84;5034452;28;21797;-53
2022/11/29 00:25:31;;;;;;;37.75;12.88;;;;;;;7.11;78.51;100108.72;5034080;28;20080;-54
2022/11/29 00:27:57;;;;;;;36.63;12.63;;;;;;;7.10;79.25;100109.56;5034647;28;20128;-54
2022/11/29 00:30:24;;;;;;;34.25;12.18;;;;;;;7.06;77.55;100110.38;5033126;28;20045;-55
2022/11/29 00:32:51;;;;;;;29.23;10.70;;;;;;;7.06;78.16;100112.94;5035940;28;20049;-51
2022/11/29 00:35:17;;;;;;;32.33;10.73;;;;;;;7.04;77.81;100124.94;5032676;28;20103;-54
2022/11/29 00:37:44;;;;;;;37.10;12.48;;;;;;;7.01;78.65;100124.88;5032824;28;20045;-56
2022/11/29 00:40:11;;;;;;;36.42;12.40;;;;;;;7.00;77.94;100123.16;5036750;28;20046;-52
2022/11/29 00:42:37;;;;;;;35.97;11.85;;;;;;;6.98;79.18;100120.56;5040445;28;20079;-56
2022/11/29 00:45:04;;;;;;;32.33;12.07;;;;;;;6.98;79.20;100127.41;5036667;28;20071;-54
2022/11/29 00:47:31;;;;;;;36.65;10.98;;;;;;;6.98;78.09;100125.72;5040340;28;20064;-53
2022/11/29 00:49:57;;;;;;;33.83;11.65;;;;;;;6.99;78.48;100131.72;5026772;28;20128;-55
2022/11/29 00:52:24;;;;;;;34.53;12.80;;;;;;;6.97;79.38;100131.72;5025111;28;20128;-55
2022/11/29 00:54:51;;;;;;;20.70;8.82;;;;;;;6.92;79.72;100131.63;5024248;28;20132;-51
2022/11/29 00:57:17;;;;;;;32.92;10.35;;;;;;;6.93;77.90;100128.22;5021982;28;20124;-56
2022/11/29 00:59:44;;;;;;;29.65;11.55;;;;;;;6.90;79.33;100130.78;5020117;28;20841;-54
2022/11/29 01:02:10;;;;;;;36.35;11.32;;;;;;;6.87;79.46;100132.41;5023750;28;20045;-52
2022/11/29 01:04:37;;;;;;;38.75;11.30;;;;;;;6.87;79.67;100133.28;5019201;28;20064;-52
2022/11/29 01:07:03;;;;;;;36.67;10.18;;;;;;;6.88;78.62;100134.13;5018318;28;20136;-53
2022/11/29 01:09:30;;;;;;;31.67;10.20;;;;;;;6.89;78.20;100136.75;5023383;28;20053;-55
2022/11/29 01:11:57;;;;;;;33.20;10.73;;;;;;;6.87;78.63;100138.44;5024108;28;20104;-55
2022/11/29 01:14:23;;;;;;;28.10;9.88;;;;;;;6.85;78.12;100134.97;5022369;28;20489;-55
2022/11/29 01:16:50;;;;;;;21.42;7.22;;;;;;;6.79;78.94;100134.91;5027364;28;20119;-56
2022/11/29 01:19:16;;;;;;;23.95;8.35;;;;;;;6.77;78.43;100136.56;5027209;28;20049;-53
2022/11/29 01:21:43;;;;;;;37.75;10.40;;;;;;;6.73;78.63;100139.94;5025871;28;20555;-52
2022/11/29 01:24:10;;;;;;;26.88;9.45;;;;;;;6.69;79.22;100145.03;5027588;28;20049;-53
2022/11/29 01:26:36;;;;;;;33.90;10.60;;;;;;;6.66;79.80;100137.28;5024613;28;20049;-54
2022/11/29 01:29:03;;;;;;;26.67;8.95;;;;;;;6.65;79.24;100140.69;5025833;28;20045;-52
2022/11/29 01:31:34;;;;;;;28.60;9.20;;;;;;;6.63;79.30;100134.69;5025134;28;20053;-57
2022/11/29 01:34:03;;;;;;;24.67;8.52;;;;;;;6.62;78.15;100145.78;5023239;28;20045;-54
2022/11/29 01:36:30;;;;;;;40.25;10.10;;;;;;;6.62;79.33;100142.38;5023001;28;20045;-54
2022/11/29 01:39:02;;;;;;;32.90;9.95;;;;;;;6.63;79.83;100150.13;5025665;28;20048;-50
2022/11/29 01:41:31;;;;;;;38.85;9.43;;;;;;;6.63;79.05;100150.13;5025479;28;20120;-53
2022/11/29 01:44:05;;;;;;;35.78;9.52;;;;;;;6.65;79.48;100147.53;5026574;28;20136;-57
2022/11/29 01:46:36;;;;;;;31.05;8.93;;;;;;;6.65;79.31;100156.16;5023834;28;20049;-57
2022/11/29 01:49:07;;;;;;;;;;;;;;;6.57;79.25;100155.16;5021953;28;20135;-54
2022/11/29 01:51:36;;;;;;;28.40;7.07;;;;;;;6.64;78.59;100166.41;5019044;28;20348;-53
2022/11/29 01:54:04;;;;;;;37.00;10.05;;;;;;;6.64;78.87;100167.28;5024225;28;20136;-56
2022/11/29 01:56:32;;;;;;;32.13;10.05;;;;;;;6.62;79.47;100168.97;5022929;28;20073;-54
2022/11/29 01:59:06;;;;;;;43.83;9.70;;;;;;;6.62;79.78;100174.09;5026011;28;20571;-55
2022/11/29 02:01:35;;;;;;;32.75;9.10;;;;;;;6.62;79.01;100184.41;5023305;28;20112;-55
2022/11/29 02:04:03;;;;;;;37.05;7.93;;;;;;;6.61;78.90;100192.97;5023029;28;20053;-53
2022/11/29 02:06:30;;;;;;;31.60;8.52;;;;;;;6.59;78.91;100194.69;5018023;28;20136;-52
2022/11/29 02:08:57;;;;;;;34.83;8.45;;;;;;;6.58;78.83;100192.91;5016149;28;20053;-56
2022/11/29 02:30:34;;;;;;;48.05;7.43;;;;;;;6.52;80.07;100213.44;5030790;27;20414;-54
2022/11/29 02:41:57;;;;;;;52.33;8.35;;;;;;;6.64;79.63;100231.63;5043837;27;20897;-52
2022/11/29 02:47:21;;;;;;;46.28;9.00;;;;;;;6.59;79.52;100235.84;5032670;28;20418;-49
2022/11/29 02:50:18;;;;;;;49.92;9.13;;;;;;;6.58;79.39;100249.53;4999723;28;20138;-54
2022/11/29 02:56:01;;;;;;;36.65;5.90;;;;;;;6.53;79.10;100254.63;5040332;27;20817;-54
2022/11/29 02:58:37;;;;;;;54.10;7.32;;;;;;;6.51;78.62;100258.00;5022878;28;20049;-50
2022/11/29 03:03:51;;;;;;;101.90;13.18;;;;;;;6.89;77.36;100260.34;5025601;27;20407;-52
2022/11/29 03:09:10;;;;;;;40.47;8.07;;;;;;;6.58;78.32;100280.41;5070898;27;20404;-53
2022/11/29 03:14:29;;;;;;;36.00;6.75;;;;;;;6.54;80.04;100273.50;5026725;28;20428;-50
2022/11/29 03:17:24;;;;;;;30.10;5.70;;;;;;;6.50;78.69;100276.84;5013786;28;21806;-55
2022/11/29 03:25:31;;;;;;;30.58;6.13;;;;;;;6.46;78.29;100285.34;5020550;27;21262;-53
2022/11/29 03:28:05;;;;;;;35.03;8.18;;;;;;;6.43;78.63;100292.16;5000346;28;20116;-53
2022/11/29 03:30:35;;;;;;;30.08;6.82;;;;;;;6.43;78.69;100292.16;4996378;28;20063;-56
2022/11/29 03:33:08;;;;;;;;;;;;;;;6.31;79.29;100297.09;4997241;28;20130;-55
2022/11/29 03:36:00;;;;;;;26.70;6.97;;;;;;;6.34;79.52;100292.00;4996531;28;19921;-52
2022/11/29 03:38:46;;;;;;;25.05;5.07;;;;;;;6.37;79.02;100302.38;5005591;28;20138;-52
2022/11/29 03:41:39;;;;;;;29.20;6.72;;;;;;;6.34;79.25;100302.31;5000975;28;20111;-52
2022/11/29 03:44:26;;;;;;;29.00;7.15;;;;;;;6.35;79.02;100309.19;5017563;28;20111;-53
2022/11/29 03:47:02;;;;;;;23.83;5.88;;;;;;;6.38;78.73;100304.09;5012440;28;20045;-54
2022/11/29 03:49:37;;;;;;;23.10;5.90;;;;;;;6.36;79.82;100310.94;5017523;28;20045;-54
2022/11/29 03:52:34;;;;;;;24.77;6.70;;;;;;;6.32;78.89;100314.28;4994917;28;20085;-53
2022/11/29 03:57:54;;;;;;;25.27;7.90;;;;;;;6.31;79.50;100322.81;5025575;27;20402;-50
2022/11/29 04:00:21;;;;;;;;;;;;;;;6.24;79.47;100323.53;5019065;28;20053;-50
2022/11/29 04:06:13;;;;;;;35.67;7.13;;;;;;;6.27;78.75;100324.47;5029928;27;20398;-53
2022/11/29 04:23:19;;;;;;;29.45;6.18;;;;;;;6.40;79.24;100333.31;5051938;27;20879;-53
2022/11/29 04:29:02;;;;;;;30.85;7.13;;;;;;;6.34;79.34;100340.91;5082396;27;20386;-53
2022/11/29 04:32:09;;;;;;;54.15;8.60;;;;;;;6.32;78.56;100345.16;5027900;28;20140;-53
2022/11/29 04:35:09;;;;;;;36.05;7.80;;;;;;;6.32;79.79;100354.56;5067859;28;20044;-54
2022/11/29 04:49:06;;;;;;;34.30;8.23;;;;;;;6.42;79.18;100372.78;5027467;28;20406;-55
2022/11/29 04:54:36;;;;;;;32.50;9.32;;;;;;;6.36;79.17;100357.25;5012856;27;20391;-54
2022/11/29 04:57:24;;;;;;;32.42;8.95;;;;;;;6.34;79.26;100364.06;4993161;28;20105;-50
2022/11/29 05:00:04;;;;;;;29.30;7.28;;;;;;;6.37;78.31;100358.97;4978717;28;20597;-54
2022/11/29 05:11:13;;;;;;;45.42;10.32;;;;;;;6.54;78.66;100371.28;5054027;28;20391;-50
2022/11/29 05:22:43;;;;;;;27.90;8.40;;;;;;;6.41;78.55;100394.22;5040330;28;20954;-54
2022/11/29 05:25:40;;;;;;;33.13;8.27;;;;;;;6.38;78.62;100386.44;5016760;28;20069;-53
2022/11/29 05:33:41;;;;;;;30.65;6.70;;;;;;;6.36;77.95;100388.13;5030772;28;20406;-51
2022/11/29 05:39:20;;;;;;;34.28;8.40;;;;;;;6.30;79.34;100398.28;5067282;27;20403;-54
2022/11/29 05:44:49;;;;;;;26.77;6.97;;;;;;;6.34;79.16;100396.63;5101751;27;20435;-49
2022/11/29 05:47:24;;;;;;;29.08;7.28;;;;;;;6.31;79.13;100400.00;5088447;27;20139;-51
2022/11/29 05:50:21;;;;;;;23.20;6.45;;;;;;;6.28;79.27;100402.50;5083781;28;20063;-54
2022/11/29 05:53:13;;;;;;;25.10;6.60;;;;;;;6.27;79.64;100408.50;5080678;27;20158;-50
2022/11/29 05:58:48;;;;;;;64.35;11.68;;;;;;;6.63;77.30;100404.94;5117554;27;20393;-53
2022/11/29 06:01:23;;;;;;;36.47;8.32;;;;;;;6.46;77.86;100408.88;5067347;28;20072;-54
2022/11/29 06:04:12;;;;;;;37.70;7.55;;;;;;;6.38;79.50;100414.72;5063959;28;20075;-56
2022/11/29 06:06:54;;;;;;;32.97;7.93;;;;;;;6.38;79.87;100417.31;5059551;28;20033;-51
2022/11/29 06:12:13;;;;;;;35.80;8.27;;;;;;;6.39;78.60;100416.47;5062006;27;20900;-51
2022/11/29 06:29:00;;;;;;;39.08;10.07;;;;;;;6.43;78.02;100451.72;5076538;27;20394;-51
2022/11/29 06:31:33;;;;;;;33.15;9.38;;;;;;;6.40;78.83;100456.81;5045338;28;20135;-55
2022/11/29 06:37:03;;;;;;;38.75;8.10;;;;;;;6.35;78.78;100460.97;5015208;27;20414;-56
2022/11/29 06:39:30;;;;;;;37.20;8.52;;;;;;;6.34;79.31;100472.09;5001621;28;20082;-54
2022/11/29 06:41:56;;;;;;;30.27;8.00;;;;;;;6.33;78.14;100480.66;4997795;28;20050;-52
2022/11/29 06:44:23;;;;;;;32.85;7.95;;;;;;;6.33;79.50;100484.94;4995950;28;20074;-50
2022/11/29 06:47:12;;;;;;;34.00;8.85;;;;;;;6.27;78.02;100472.81;4995379;28;20074;-54
2022/11/29 06:50:12;;;;;;;27.88;6.82;;;;;;;6.24;79.01;100475.31;5001107;28;20054;-56
2022/11/29 07:06:35;;;;;;;31.25;7.60;;;;;;;6.23;79.03;100500.19;5046276;28;20512;-51
2022/11/29 07:09:15;;;;;;;33.58;7.95;;;;;;;6.22;79.35;100497.56;5036747;28;20041;-53
2022/11/29 07:11:42;;;;;;;30.95;7.22;;;;;;;6.25;79.16;100505.38;5039826;28;20068;-50
2022/11/29 07:14:09;;;;;;;31.33;8.15;;;;;;;6.25;79.07;100506.22;5038468;28;20128;-50
2022/11/29 07:16:48;;;;;;;32.47;8.70;;;;;;;6.25;78.42;100507.94;5037588;28;20133;-54
2022/11/29 07:25:00;;;;;;;34.33;9.05;;;;;;;6.23;78.00;100531.06;5023182;28;20414;-53
2022/11/29 07:35:44;;;;;;;33.53;7.03;;;;;;;6.20;78.53;100540.38;5061610;27;20396;-53
2022/11/29 07:38:50;;;;;;;35.38;7.80;;;;;;;6.16;79.46;100540.34;5042852;28;20072;-54
2022/11/29 07:41:28;;;;;;;43.25;7.85;;;;;;;6.20;78.42;100550.66;5036924;28;20069;-50
2022/11/29 07:44:11;;;;;;;37.60;7.65;;;;;;;6.20;78.92;100546.41;5031915;28;20069;-52
2022/11/29 07:46:38;;;;;;;;;;;;;;;6.14;79.09;100542.00;5032165;28;20103;-56
2022/11/29 07:49:05;;;;;;;40.72;8.30;;;;;;;6.21;79.65;100548.13;5056155;28;20023;-53
2022/11/29 07:51:31;;;;;;;33.05;7.85;;;;;;;6.22;78.23;100551.59;5053106;28;20103;-52
2022/11/29 07:53:58;;;;;;;36.88;7.05;;;;;;;6.22;79.85;100559.31;5048148;28;20494;-53
2022/11/29 07:56:25;;;;;;;32.30;6.57;;;;;;;6.22;80.17;100564.44;5051862;28;20504;-54
2022/11/29 07:58:52;;;;;;;30.55;7.45;;;;;;;6.19;80.03;100557.53;5049483;28;20150;-52
2022/11/29 08:01:18;;;;;;;33.83;6.88;;;;;;;6.20;78.48;100555.81;5055983;28;20171;-53
2022/11/29 08:03:45;;;;;;;32.83;7.43;;;;;;;6.19;78.79;100556.66;5052530;28;20118;-54
2022/11/29 08:06:12;;;;;;;25.85;6.65;;;;;;;6.14;79.71;100551.41;5049483;28;20083;-54
2022/11/29 08:08:38;;;;;;;38.33;7.70;;;;;;;6.12;79.01;100547.94;5054681;28;20136;-54
2022/11/29 08:11:11;;;;;;;28.20;6.07;;;;;;;6.09;79.39;100543.59;5053184;28;20037;-53
2022/11/29 08:13:38;;;;;;;32.63;6.60;;;;;;;6.09;79.73;100546.16;5050145;28;20187;-52
2022/11/29 08:16:05;;;;;;;25.27;5.70;;;;;;;6.10;79.10;100540.19;5050553;28;20455;-52
2022/11/29 08:18:31;;;;;;;31.30;6.45;;;;;;;6.09;78.86;100543.59;5048686;28;20145;-51
2022/11/29 08:20:58;;;;;;;36.30;6.65;;;;;;;6.10;80.08;100539.31;5050596;28;20052;-56
2022/11/29 08:23:24;;;;;;;32.22;6.97;;;;;;;6.10;79.62;100537.59;5051280;28;20072;-52
2022/11/29 08:25:58;;;;;;;32.25;6.70;;;;;;;6.12;79.12;100528.22;5053823;28;20072;-52
2022/11/29 08:28:25;;;;;;;33.25;8.35;;;;;;;6.12;78.77;100523.06;5050728;28;20053;-53
2022/11/29 08:31:00;;;;;;;31.75;6.90;;;;;;;6.13;78.50;100524.81;5052912;28;20122;-54
2022/11/29 08:33:27;;;;;;;34.97;6.50;;;;;;;6.16;80.18;100536.88;5051087;28;20047;-55
2022/11/29 08:35:53;;;;;;;32.75;7.15;;;;;;;6.17;79.84;100542.06;5047110;28;21264;-51
2022/11/29 08:38:20;;;;;;;33.83;6.63;;;;;;;6.17;78.67;100539.50;5057919;28;20099;-51
2022/11/29 08:40:47;;;;;;;34.97;8.52;;;;;;;6.20;79.71;100545.53;5057413;28;20048;-53
2022/11/29 08:43:13;;;;;;;27.70;5.65;;;;;;;6.19;79.30;100548.94;5033164;28;20092;-57
2022/11/29 08:45:40;;;;;;;25.45;5.65;;;;;;;6.19;79.97;100559.22;5026794;28;20092;-53
2022/11/29 08:48:06;;;;;;;35.17;6.47;;;;;;;6.17;78.78;100557.50;5017719;28;20042;-52
2022/11/29 08:50:33;;;;;;;30.63;6.72;;;;;;;6.19;80.13;100559.22;5016538;28;20065;-51
2022/11/29 08:55:46;;;;;;;24.70;5.72;;;;;;;6.22;79.51;100574.75;5018004;28;20045;-52
2022/11/29 08:58:14;;;;;;;27.25;6.70;;;;;;;6.23;79.43;100586.75;5012991;28;20584;-50
2022/11/29 09:00:44;;;;;;;31.58;7.45;;;;;;;6.24;80.22;100583.34;5009096;28;20065;-53
2022/11/29 09:06:06;;;;;;;30.50;7.13;;;;;;;6.25;78.27;100595.41;5018267;28;20164;-52
2022/11/29 09:08:38;;;;;;;33.30;7.15;;;;;;;6.23;79.33;100589.34;5018353;28;20096;-56
2022/11/29 09:11:08;;;;;;;34.65;7.63;;;;;;;6.23;79.22;100592.78;5015659;28;20489;-55
2022/11/29 09:13:34;;;;;;;34.45;7.30;;;;;;;6.21;79.19;100598.72;5021851;28;20046;-55
2022/11/29 09:16:06;;;;;;;30.25;5.60;;;;;;;6.21;79.94;100609.03;5014583;28;20144;-51
2022/11/29 09:18:32;;;;;;;29.45;6.10;;;;;;;6.17;79.88;100608.94;5019235;28;20136;-50
2022/11/29 09:20:59;;;;;;;32.25;6.03;;;;;;;6.17;79.80;100616.66;5018719;28;22134;-55
2022/11/29 09:23:25;;;;;;;32.10;6.50;;;;;;;6.20;79.04;100612.41;5022396;28;20191;-54
2022/11/29 09:25:53;;;;;;;25.65;6.30;;;;;;;6.22;78.76;100610.75;5014515;28;20479;-54
2022/11/29 09:28:19;;;;;;;33.45;7.47;;;;;;;6.24;79.49;100614.22;5015759;28;20458;-54
2022/11/29 09:30:46;;;;;;;33.85;7.25;;;;;;;6.26;79.17;100617.72;5018427;28;20076;-56
2022/11/29 09:33:13;;;;;;;41.20;7.72;;;;;;;6.29;79.27;100618.66;5019569;28;20638;-53
2022/11/29 09:35:39;;;;;;;27.92;7.28;;;;;;;6.33;79.95;100619.59;5019160;28;20510;-52
2022/11/29 09:38:06;;;;;;;24.33;6.80;;;;;;;6.35;78.95;100623.06;5018696;28;20136;-55
2022/11/29 09:40:39;;;;;;;34.08;7.10;;;;;;;6.39;79.13;100630.03;5020530;28;20124;-53
2022/11/29 09:45:58;;;;;;;29.75;5.93;;;;;;;6.42;79.60;100629.25;5046382;27;20941;-49
2022/11/29 09:54:04;;;;;;;25.73;5.72;;;;;;;6.43;78.16;100642.13;5042623;28;20410;-52
2022/11/29 09:56:50;;;;;;;29.05;6.40;;;;;;;6.42;78.38;100645.53;5020359;28;20053;-55
2022/11/29 09:59:27;;;;;;;28.60;7.72;;;;;;;6.43;78.79;100646.44;5021729;28;20096;-54
2022/11/29 10:02:04;;;;;;;28.30;5.68;;;;;;;6.42;79.30;100650.69;5016897;28;20141;-55
2022/11/29 10:04:39;;;;;;;21.33;5.93;;;;;;;6.43;78.44;100646.44;5021652;28;20564;-52
2022/11/29 10:07:16;;;;;;;28.83;6.05;;;;;;;6.45;79.21;100641.31;5020899;28;20053;-53
2022/11/29 10:09:47;;;;;;;26.58;7.22;;;;;;;6.46;78.56;100651.66;5019095;28;20730;-53
2022/11/29 10:12:44;;;;;;;25.13;5.20;;;;;;;6.40;79.21;100657.53;5020549;28;20048;-49
2022/11/29 10:15:19;;;;;;;25.27;5.68;;;;;;;6.40;78.45;100662.66;5013433;28;20254;-52
2022/11/29 10:17:53;;;;;;;29.55;6.75;;;;;;;6.39;79.95;100668.63;5018369;28;20081;-53
2022/11/29 10:20:26;;;;;;;24.20;6.60;;;;;;;6.38;79.42;100663.47;5013656;28;20085;-53
2022/11/29 10:23:05;;;;;;;26.70;6.95;;;;;;;6.34;79.01;100667.66;5013230;28;20128;-49
2022/11/29 10:25:45;;;;;;;29.27;6.30;;;;;;;6.30;79.91;100670.97;5018176;28;20137;-50
2022/11/29 10:28:16;;;;;;;24.35;5.88;;;;;;;6.28;78.45;100664.91;5000261;28;20132;-54
2022/11/29 10:30:43;;;;;;;21.23;5.72;;;;;;;6.23;79.42;100669.09;5018076;28;20050;-57
2022/11/29 10:33:32;;;;;;;25.25;6.20;;;;;;;6.18;78.24;100671.53;5021679;28;20127;-53
2022/11/29 10:36:03;;;;;;;21.23;5.88;;;;;;;6.20;78.97;100674.13;5014462;28;20139;-54
2022/11/29 10:38:30;;;;;;;24.30;5.90;;;;;;;6.26;79.65;100669.16;5015373;28;20041;-54
2022/11/29 10:41:06;;;;;;;26.15;5.75;;;;;;;6.27;79.56;100670.91;5019345;28;20054;-52
2022/11/29 10:43:33;;;;;;;22.05;5.13;;;;;;;6.30;78.98;100676.13;5019999;28;20065;-51
2022/11/29 10:46:01;;;;;;;28.45;7.63;;;;;;;6.33;80.02;100671.06;5017344;28;20044;-55
2022/11/29 10:48:32;;;;;;;21.73;6.13;;;;;;;6.40;79.47;100682.38;5013342;28;20108;-55
2022/11/29 10:51:00;;;;;;;30.15;7.32;;;;;;;6.45;79.46;100675.63;5016229;28;20161;-53
2022/11/29 10:53:34;;;;;;;25.75;6.43;;;;;;;6.51;78.53;100680.03;5017848;28;20875;-53
2022/11/29 10:56:28;;;;;;;21.20;6.57;;;;;;;6.53;78.41;100680.97;5012227;28;20050;-54
2022/11/29 10:59:03;;;;;;;20.70;7.03;;;;;;;6.59;78.57;100682.81;5002782;28;20589;-52
2022/11/29 11:01:32;;;;;;;31.98;9.32;;;;;;;6.62;80.01;100681.19;5015904;28;20056;-54
2022/11/29 11:04:03;;;;;;;30.05;9.13;;;;;;;6.66;78.58;100685.56;5009466;28;20042;-54
2022/11/29 11:06:47;;;;;;;;;;;;;;;6.57;78.69;100680.22;5004582;28;20050;-55
2022/11/29 11:11:57;;;;;;;24.55;7.00;;;;;;;6.65;78.96;100668.38;5038516;27;20409;-53
2022/11/29 11:14:27;;;;;;;22.50;7.57;;;;;;;6.67;79.39;100666.72;5019894;28;20045;-51
2022/11/29 11:16:53;;;;;;;25.15;7.70;;;;;;;6.66;79.91;100664.97;5020411;28;20088;-53
2022/11/29 11:22:02;;;;;;;24.80;7.32;;;;;;;6.62;79.61;100659.72;5018687;27;20468;-56
2022/11/29 11:24:34;;;;;;;31.45;8.88;;;;;;;6.62;78.48;100663.16;5012973;28;20100;-57
2022/11/29 11:27:01;;;;;;;30.35;6.80;;;;;;;6.64;78.04;100661.50;5019012;28;20135;-50
2022/11/29 11:29:44;;;;;;;27.10;7.70;;;;;;;6.64;79.10;100658.94;5019116;28;20137;-54
2022/11/29 11:32:16;;;;;;;18.95;6.60;;;;;;;6.65;78.79;100655.50;5015154;28;20058;-57
2022/11/29 11:34:53;;;;;;;24.65;7.38;;;;;;;6.64;78.96;100651.22;4997833;28;20057;-51
2022/11/29 11:37:24;;;;;;;23.80;8.00;;;;;;;6.64;78.30;100651.22;5017638;28;20125;-52
2022/11/29 11:39:54;;;;;;;19.23;7.68;;;;;;;6.64;78.02;100645.19;5017635;28;20168;-55
2022/11/29 11:47:52;;;;;;;27.40;7.50;;;;;;;6.58;78.71;100653.63;5032832;28;20429;-52
2022/11/29 11:50:42;;;;;;;20.83;7.57;;;;;;;6.58;77.94;100657.91;5020056;28;20081;-52
2022/11/29 11:53:34;;;;;;;23.98;7.53;;;;;;;6.57;78.54;100659.63;5014952;28;20073;-55
2022/11/29 11:56:12;;;;;;;22.92;8.27;;;;;;;6.63;78.82;100662.34;5015679;28;20053;-53
2022/11/29 12:01:38;;;;;;;24.65;6.78;;;;;;;6.71;79.29;100661.63;5074763;28;20398;-53
2022/11/29 12:04:13;;;;;;;18.45;5.03;;;;;;;6.76;78.92;100665.19;5038601;28;20052;-52
2022/11/29 12:07:10;;;;;;;22.88;5.28;;;;;;;6.75;78.50;100658.31;5035063;28;20139;-55
2022/11/29 12:09:43;;;;;;;22.67;5.65;;;;;;;6.76;79.72;100650.59;5028811;28;20080;-52
2022/11/29 12:17:51;;;;;;;22.60;4.85;;;;;;;6.68;78.33;100655.59;5084132;27;20431;-54
2022/11/29 12:26:05;;;;;;;19.08;4.70;;;;;;;6.61;77.71;100656.28;5044350;28;21029;-51
2022/11/29 12:28:36;;;;;;;25.58;7.05;;;;;;;6.54;78.27;100654.38;5021174;28;20095;-55
2022/11/29 12:37:12;;;;;;;28.80;6.90;;;;;;;6.41;79.38;100651.53;5024552;28;20409;-57
2022/11/29 12:50:30;;;;;;;22.73;6.25;;;;;;;6.46;78.81;100661.06;5049122;27;20405;-55
2022/11/29 12:53:20;;;;;;;30.33;6.40;;;;;;;6.43;78.55;100655.00;5016029;28;20130;-57
2022/11/29 12:56:32;;;;;;;25.52;5.95;;;;;;;6.46;78.48;100655.91;5016398;28;20049;-51
2022/11/29 12:59:27;;;;;;;28.95;5.95;;;;;;;6.52;78.75;100658.66;5008894;28;20136;-52
2022/11/29 13:02:28;;;;;;;25.17;6.45;;;;;;;6.55;79.73;100671.56;5015566;28;20068;-54
2022/11/29 13:22:20;;;;;;;24.83;7.55;;;;;;;6.37;78.42;100670.31;5100720;27;20412;-54
2022/11/29 13:24:52;;;;;;;22.33;8.27;;;;;;;6.33;79.06;100660.78;5042572;28;20167;-55
2022/11/29 13:27:26;;;;;;;28.48;9.02;;;;;;;6.28;79.40;100664.91;5056816;28;20135;-53
2022/11/29 13:29:52;;;;;;;25.33;8.27;;;;;;;6.29;79.77;100669.25;5066291;28;20139;-50
2022/11/29 13:32:46;;;;;;;27.80;7.57;;;;;;;6.30;79.23;100673.56;5074902;28;20709;-54
2022/11/29 13:37:57;;;;;;;22.35;5.43;;;;;;;6.38;78.56;100674.59;5059840;28;20414;-53
2022/11/29 13:43:17;;;;;;;37.33;7.90;;;;;;;6.83;76.80;100672.22;5039320;28;20401;-56
2022/11/29 13:48:56;;;;;;;22.77;5.95;;;;;;;6.42;78.70;100675.56;5037218;28;20412;-54
2022/11/29 13:54:02;;;;;;;19.83;4.40;;;;;;;6.16;78.91;100679.22;5033489;27;20407;-55
2022/11/29 13:56:41;;;;;;;18.85;5.32;;;;;;;6.13;78.21;100679.16;5017719;28;20041;-53
2022/11/29 13:59:16;;;;;;;20.88;5.05;;;;;;;6.10;78.90;100689.34;5012601;28;20062;-53
2022/11/29 14:01:45;;;;;;;22.25;5.55;;;;;;;6.07;78.04;100690.97;5029967;28;20050;-53
2022/11/29 14:07:14;;;;;;;16.08;4.65;;;;;;;5.86;78.34;100675.00;5002315;28;20416;-54
2022/11/29 14:09:47;;;;;;;13.30;4.13;;;;;;;5.92;79.04;100670.00;4998637;28;20510;-52
2022/11/29 14:17:55;;;;;;;25.63;7.03;;;;;;;6.46;77.16;100661.94;5041171;28;21219;-50
2022/11/29 14:31:47;;;;;;;24.85;7.30;;;;;;;6.30;78.64;100673.56;5057233;27;20927;-52
2022/11/29 14:34:19;;;;;;;26.85;7.68;;;;;;;6.36;77.98;100684.00;5035721;28;20041;-56
2022/11/29 14:36:58;;;;;;;20.73;6.30;;;;;;;6.38;78.42;100677.19;5014326;28;20050;-57
2022/11/29 14:39:32;;;;;;;19.23;5.72;;;;;;;6.41;79.40;100678.97;5031742;28;20079;-51
2022/11/29 14:42:13;;;;;;;20.27;6.18;;;;;;;6.43;79.10;100677.31;5037010;28;20103;-57
2022/11/29 14:44:59;;;;;;;22.60;6.07;;;;;;;6.43;78.87;100673.00;5033034;28;20080;-51
2022/11/29 14:47:31;;;;;;;29.95;7.53;;;;;;;6.49;78.90;100681.72;5032853;28;20041;-55
2022/11/29 14:50:02;;;;;;;19.58;6.40;;;;;;;6.52;78.80;100686.97;5033684;28;20148;-55
2022/11/29 14:52:34;;;;;;;20.80;5.70;;;;;;;6.49;78.71;100681.72;5040745;28;20051;-51
2022/11/29 14:55:07;;;;;;;17.80;5.43;;;;;;;6.46;78.19;100673.94;5029196;28;20049;-52
2022/11/29 14:58:04;;;;;;;21.52;5.13;;;;;;;6.41;78.84;100674.69;5033595;28;20064;-54
2022/11/29 15:03:12;;;;;;;38.40;11.93;;;;;;;6.48;78.36;100682.56;5042680;27;20945;-55
2022/11/29 15:05:43;;;;;;;23.35;6.13;;;;;;;6.49;77.94;100679.16;5023060;28;20038;-56
2022/11/29 15:08:19;;;;;;;21.20;5.50;;;;;;;6.46;78.27;100681.66;5040159;28;20049;-49
2022/11/29 15:10:51;;;;;;;21.40;4.93;;;;;;;6.42;79.22;100678.16;5035343;28;20548;-53
2022/11/29 15:13:25;;;;;;;18.80;5.10;;;;;;;6.43;78.23;100679.88;5037741;28;20057;-58
2022/11/29 15:16:25;;;;;;;21.52;4.80;;;;;;;6.38;78.53;100674.59;5038531;28;20045;-54
2022/11/29 15:24:19;;;;;;;17.90;4.95;;;;;;;6.42;78.34;100681.56;5028332;28;20406;-53
2022/11/29 15:29:32;;;;;;;40.72;16.38;;;;;;;6.46;79.21;100681.66;5041932;27;20397;-54
2022/11/29 15:32:04;;;;;;;22.90;10.02;;;;;;;6.45;78.50;100685.06;5015904;28;20072;-51
2022/11/29 15:34:38;;;;;;;25.05;10.27;;;;;;;6.42;78.44;100686.72;5022348;28;20055;-53
2022/11/29 15:37:05;;;;;;;33.63;12.82;;;;;;;6.43;78.18;100687.59;5020847;28;20085;-53
2022/11/29 15:39:36;;;;;;;26.48;9.98;;;;;;;6.43;77.99;100693.59;5053524;28;20081;-53
2022/11/29 15:42:10;;;;;;;25.38;9.25;;;;;;;6.45;78.53;100691.06;5056666;28;20831;-56
2022/11/29 15:44:44;;;;;;;23.48;7.43;;;;;;;6.41;77.76;100690.13;5054677;28;20102;-54
2022/11/29 15:49:52;;;;;;;19.60;6.00;;;;;;;6.40;79.23;100696.13;5052528;28;20411;-53
2022/11/29 15:52:30;;;;;;;18.23;6.35;;;;;;;6.37;78.27;100687.44;5017252;28;20069;-53
2022/11/29 15:55:02;;;;;;;17.48;5.85;;;;;;;6.37;79.00;100685.75;5016319;28;20144;-51
2022/11/29 16:00:14;;;;;;;16.70;4.75;;;;;;;6.33;77.69;100691.66;5015273;28;20404;-53
2022/11/29 16:02:49;;;;;;;14.23;4.20;;;;;;;6.29;79.13;100685.53;4998367;28;20141;-53
2022/11/29 16:05:22;;;;;;;15.18;4.90;;;;;;;6.27;77.86;100696.63;4995782;28;20073;-57
2022/11/29 16:07:52;;;;;;;16.02;4.75;;;;;;;6.27;79.04;100705.22;4997991;28;20085;-50
2022/11/29 16:10:23;;;;;;;16.27;4.10;;;;;;;6.29;78.53;100705.25;4998955;28;20069;-53
2022/11/29 16:15:31;;;;;;;19.73;6.18;;;;;;;6.25;77.95;100713.75;5003015;28;21859;-55
2022/11/29 16:18:21;;;;;;;12.57;5.03;;;;;;;6.11;78.54;100709.09;4992220;28;20127;-53
2022/11/29 16:21:04;;;;;;;10.48;3.85;;;;;;;5.94;77.86;100712.91;4988578;28;20088;-52
2022/11/29 16:23:34;;;;;;;10.88;4.18;;;;;;;5.78;77.89;100717.63;4990739;28;20108;-56
2022/11/29 16:28:44;;;;;;;9.80;3.13;;;;;;;5.65;78.85;100717.25;5038179;28;20400;-56
2022/11/29 16:31:16;;;;;;;16.67;3.83;;;;;;;5.61;78.37;100715.44;4995657;28;20042;-54
2022/11/29 16:33:46;;;;;;;14.63;3.28;;;;;;;5.61;78.38;100720.56;4993274;28;20057;-56
2022/11/29 16:36:18;;;;;;;10.45;2.67;;;;;;;5.65;79.38;100716.41;4992043;28;20053;-50
2022/11/29 16:38:47;;;;;;;14.02;4.72;;;;;;;5.68;79.39;100718.19;4992159;28;20097;-54
2022/11/29 16:41:21;;;;;;;12.63;3.75;;;;;;;5.70;79.10;100717.38;4994221;28;20115;-49
2022/11/29 16:43:54;;;;;;;16.63;4.20;;;;;;;5.70;78.31;100725.09;4994233;28;20136;-56